createdAt,value
2019-03-09T00:03:46.490Z,5.7
2019-03-09T00:08:48.953Z,5.8
2019-03-09T00:13:51.484Z,5.9
2019-03-09T00:18:53.881Z,6
2019-03-09T00:23:56.315Z,6
2019-03-09T00:28:58.782Z,6
2019-03-09T00:34:01.409Z,6
2019-03-09T00:39:03.692Z,6.1
2019-03-09T00:44:06.396Z,5.9
2019-03-09T00:49:08.615Z,5.8
2019-03-09T00:54:11.092Z,5.7
2019-03-09T00:59:13.684Z,5.6
2019-03-09T01:04:16.009Z,5.5
2019-03-09T01:09:23.415Z,5.4
2019-03-09T01:14:25.912Z,5.4
2019-03-09T01:19:23.485Z,5.4
2019-03-09T01:24:25.806Z,5.3
2019-03-09T01:29:28.269Z,5.3
2019-03-09T01:34:30.730Z,5.2
2019-03-09T01:39:33.241Z,5.2
2019-03-09T01:44:35.704Z,5.2
2019-03-09T01:49:38.100Z,5.2
2019-03-09T01:54:45.548Z,5.2
2019-03-09T01:59:43.019Z,5.2
2019-03-09T02:04:45.495Z,5.1
2019-03-09T02:09:47.975Z,5.1
2019-03-09T02:14:50.387Z,5.2
2019-03-09T02:19:52.855Z,5.2
2019-03-09T02:24:55.291Z,5.1
2019-03-09T02:29:57.766Z,5.1
2019-03-09T02:35:00.448Z,5
2019-03-09T02:40:02.688Z,4.9
2019-03-09T02:45:05.160Z,4.8
2019-03-09T02:50:07.616Z,4.6
2019-03-09T02:55:10.083Z,4.6
2019-03-09T03:00:12.523Z,4.5
2019-03-09T03:05:15.004Z,4.5
2019-03-09T03:10:17.458Z,4.4
2019-03-09T03:15:24.932Z,4.3
2019-03-09T03:20:22.651Z,4.4
2019-03-09T03:25:24.836Z,4.3
2019-03-09T03:30:27.260Z,4.2
2019-03-09T03:40:32.198Z,4.1
2019-03-09T03:45:34.665Z,4.1
2019-03-09T03:50:37.100Z,4.2
2019-03-09T03:55:39.542Z,4.3
2019-03-09T04:00:42.028Z,4.3
2019-03-09T04:05:44.630Z,4.4
2019-03-09T04:10:46.942Z,4.4
2019-03-09T04:15:49.379Z,4.5
2019-03-09T04:20:52.150Z,4.5
2019-03-09T04:25:54.314Z,4.6
2019-03-09T04:30:56.747Z,4.6
2019-03-09T04:35:59.243Z,4.7
2019-03-09T04:41:01.676Z,4.8
2019-03-09T04:46:04.159Z,4.8
2019-03-09T04:51:06.602Z,4.8
2019-03-09T04:56:09.102Z,4.8
2019-03-09T05:01:16.496Z,4.8
2019-03-09T05:06:13.965Z,4.8
2019-03-09T05:11:16.493Z,4.8
2019-03-09T05:16:18.901Z,4.8
2019-03-09T05:21:21.339Z,4.9
2019-03-09T05:26:23.791Z,5
2019-03-09T05:31:26.251Z,5.1
2019-03-09T05:36:28.701Z,5.2
2019-03-09T05:41:31.217Z,5.3
2019-03-09T05:46:33.654Z,5.3
2019-03-09T05:51:36.079Z,5.3
2019-03-09T05:56:38.822Z,5.3
2019-03-09T06:01:40.996Z,5.4
2019-03-09T06:06:43.490Z,5.4
2019-03-09T06:11:45.947Z,5.3
2019-03-09T06:16:48.377Z,5.2
2019-03-09T06:21:51.099Z,5.2
2019-03-09T06:31:55.931Z,5.1
2019-03-09T06:36:58.177Z,5.1
2019-03-09T06:42:00.687Z,5
2019-03-09T06:47:03.266Z,4.9
2019-03-09T06:52:05.569Z,4.9
2019-03-09T06:57:13.697Z,4.8
2019-03-09T07:02:10.473Z,4.8
2019-03-09T07:07:12.922Z,4.8
2019-03-09T07:12:15.407Z,4.7
2019-03-09T07:17:17.853Z,4.6
2019-03-09T07:22:20.598Z,4.5
2019-03-09T07:27:22.777Z,4.5
2019-03-09T07:32:25.230Z,4.6
2019-03-09T07:37:27.667Z,4.8
2019-03-09T07:42:30.191Z,5
2019-03-09T07:47:32.645Z,5.2
2019-03-09T07:52:35.038Z,5.3
2019-03-09T07:57:37.497Z,5.4
2019-03-09T08:02:39.976Z,5.7
2019-03-09T08:07:42.440Z,6.1
2019-03-09T08:12:44.866Z,6.7
2019-03-09T08:17:47.363Z,6.8
2019-03-09T08:22:49.817Z,7.3
2019-03-09T08:27:52.294Z,7.6
2019-03-09T08:32:54.752Z,7.9
2019-03-09T08:37:57.184Z,8.4
2019-03-09T08:42:59.617Z,9
2019-03-09T08:48:07.093Z,9.7
2019-03-09T08:53:04.587Z,10
2019-03-09T08:58:07.027Z,10
2019-03-09T09:03:09.445Z,10.8
2019-03-09T09:08:11.914Z,10.4
2019-03-09T09:13:14.390Z,11.4
2019-03-09T09:18:16.844Z,13
2019-03-09T09:23:24.613Z,14.2
2019-03-09T09:28:21.743Z,14.5
2019-03-09T09:33:24.190Z,14.6
2019-03-09T09:38:26.643Z,14.8
2019-03-09T09:43:29.241Z,14.4
2019-03-09T09:48:31.730Z,14
2019-03-09T09:53:34.018Z,14.3
2019-03-09T09:58:36.615Z,14.7
2019-03-09T10:03:38.923Z,14.9
2019-03-09T10:08:41.515Z,14.6
2019-03-09T10:13:43.871Z,14
2019-03-09T10:18:46.372Z,13.2
2019-03-09T10:23:49.062Z,12.6
2019-03-09T10:28:51.247Z,12
2019-03-09T10:33:53.686Z,11.7
2019-03-09T10:38:56.168Z,11.1
2019-03-09T10:43:58.597Z,10.9
2019-03-09T10:49:01.241Z,11
2019-03-09T10:54:03.853Z,11.2
2019-03-09T11:04:08.421Z,11.1
2019-03-09T11:09:10.878Z,10.8
2019-03-09T11:14:13.410Z,10.7
2019-03-09T11:19:15.811Z,10.8
2019-03-09T11:24:18.291Z,10.9
2019-03-09T11:29:20.838Z,11
2019-03-09T11:34:23.183Z,11
2019-03-09T11:39:25.673Z,10.9
2019-03-09T11:44:28.076Z,10.9
2019-03-09T11:49:30.603Z,10.9
2019-03-09T11:54:33.290Z,10.8
2019-03-09T11:59:35.442Z,10.6
2019-03-09T12:04:46.244Z,10.6
2019-03-09T12:09:40.391Z,10.7
2019-03-09T12:14:42.927Z,11.1
2019-03-09T12:19:45.357Z,11.3
2019-03-09T12:24:47.783Z,11.4
2019-03-09T12:29:50.209Z,11.5
2019-03-09T12:34:52.641Z,11.5
2019-03-09T12:39:55.103Z,11.3
2019-03-09T12:44:57.567Z,11
2019-03-09T12:50:00.017Z,10.8
2019-03-09T12:55:02.538Z,10.8
2019-03-09T13:00:05.025Z,11
2019-03-09T13:05:07.425Z,11.2
2019-03-09T13:10:09.863Z,11.4
2019-03-09T13:15:12.401Z,11.3
2019-03-09T13:20:14.769Z,11.5
2019-03-09T13:25:17.474Z,11.6
2019-03-09T13:30:19.691Z,11.3
2019-03-09T13:35:22.244Z,11.4
2019-03-09T13:40:24.599Z,11.5
2019-03-09T13:45:27.101Z,11.4
2019-03-09T13:50:29.511Z,11.4
2019-03-09T13:55:31.986Z,11.2
2019-03-09T14:00:40.300Z,11
2019-03-09T14:05:36.937Z,10.7
2019-03-09T14:10:39.389Z,10.5
2019-03-09T14:15:41.783Z,10.4
2019-03-09T14:20:44.264Z,10.5
2019-03-09T14:25:46.701Z,10.6
2019-03-09T14:30:49.175Z,10.5
2019-03-09T14:35:51.675Z,10.6
2019-03-09T14:40:54.092Z,10.5
2019-03-09T14:45:56.526Z,10.4
2019-03-09T14:50:59.060Z,10.3
2019-03-09T14:56:01.482Z,10.3
2019-03-09T15:01:03.972Z,10.3
2019-03-09T15:06:06.470Z,10.4
2019-03-09T15:11:08.864Z,10.4
2019-03-09T15:16:11.293Z,10.4
2019-03-09T15:21:13.754Z,10.3
2019-03-09T15:26:16.294Z,10.2
2019-03-09T15:31:18.864Z,10.1
2019-03-09T15:36:21.109Z,9.7
2019-03-09T15:41:23.553Z,9.5
2019-03-09T15:46:26.099Z,9.5
2019-03-09T15:51:28.516Z,9.5
2019-03-09T15:56:31.273Z,9.4
2019-03-09T16:01:33.440Z,9.4
2019-03-09T16:06:35.853Z,9.3
2019-03-09T16:11:44.773Z,9.2
2019-03-09T16:16:40.885Z,9.1
2019-03-09T16:21:43.240Z,9.1
2019-03-09T16:26:45.676Z,9
2019-03-09T16:31:48.146Z,8.9
2019-03-09T16:36:50.605Z,8.8
2019-03-09T16:41:53.059Z,8.7
2019-03-09T16:46:55.502Z,8.7
2019-03-09T16:51:57.963Z,8.6
2019-03-09T16:57:00.724Z,8.6
2019-03-09T17:02:07.880Z,8.6
2019-03-09T17:07:05.433Z,8.6
2019-03-09T17:12:07.850Z,8.6
2019-03-09T17:17:10.263Z,8.6
2019-03-09T17:22:12.791Z,8.5
2019-03-09T17:27:15.176Z,8.1
2019-03-09T17:32:25.496Z,7.7
2019-03-09T17:37:20.069Z,7.4
2019-03-09T17:42:22.542Z,7.2
2019-03-09T17:47:25.020Z,7
2019-03-09T17:52:27.587Z,6.8
2019-03-09T17:57:30.202Z,6.7
2019-03-09T18:02:32.396Z,6.6
2019-03-09T18:07:35.068Z,6.6
2019-03-09T18:12:37.296Z,6.6
2019-03-09T18:17:39.755Z,6.8
2019-03-09T18:22:42.325Z,6.8
2019-03-09T18:27:45.011Z,6.8
2019-03-09T18:32:47.125Z,6.8
2019-03-09T18:37:49.573Z,6.7
2019-03-09T18:42:52.044Z,6.6
2019-03-09T18:47:54.495Z,6.5
2019-03-09T18:52:56.980Z,6.5
2019-03-09T18:57:59.423Z,6.6
2019-03-09T19:03:01.910Z,6.7
2019-03-09T19:08:04.404Z,6.8
2019-03-09T19:13:06.821Z,6.9
2019-03-09T19:18:09.266Z,6.9
2019-03-09T19:23:11.865Z,6.8
2019-03-09T19:28:14.506Z,6.2
2019-03-09T19:33:16.624Z,5.4
2019-03-09T19:38:19.119Z,4.9
2019-03-09T19:43:21.544Z,4.7
2019-03-09T19:48:23.989Z,4.7
2019-03-09T19:53:31.473Z,4.7
2019-03-09T19:58:29.222Z,4.7
2019-03-09T20:03:31.439Z,4.8
2019-03-09T20:08:33.831Z,4.8
2019-03-09T20:13:36.655Z,4.9
2019-03-09T20:18:38.750Z,4.9
2019-03-09T20:23:41.220Z,4.9
2019-03-09T20:28:43.671Z,4.9
2019-03-09T20:33:46.276Z,4.9
2019-03-09T20:38:48.603Z,4.9
2019-03-09T20:43:51.042Z,4.9
2019-03-09T20:48:53.487Z,5
2019-03-09T20:53:55.955Z,4.9
2019-03-09T20:58:58.505Z,4.8
2019-03-09T21:04:01.138Z,4.8
2019-03-09T21:09:03.348Z,4.9
2019-03-09T21:14:05.762Z,4.9
2019-03-09T21:19:08.236Z,4.9
2019-03-09T21:24:10.732Z,5
2019-03-09T21:29:13.443Z,4.9
2019-03-09T21:34:15.595Z,4.9
2019-03-09T21:39:18.064Z,4.8
2019-03-09T21:44:20.528Z,4.8
2019-03-09T21:49:23.052Z,4.7
2019-03-09T21:54:25.434Z,4.6
2019-03-09T21:59:27.892Z,4.5
2019-03-09T22:04:30.381Z,4.4
2019-03-09T22:09:32.834Z,4.4
2019-03-09T22:14:35.287Z,4.3
2019-03-09T22:19:37.713Z,4.2
2019-03-09T22:24:40.290Z,4.1
2019-03-09T22:29:42.925Z,4.1
2019-03-09T22:34:45.097Z,4
2019-03-09T22:39:47.626Z,3.9
2019-03-09T22:44:50.076Z,3.8
2019-03-09T22:49:52.521Z,3.7
2019-03-09T22:54:55.069Z,3.7
2019-03-09T22:59:57.708Z,3.7
2019-03-09T23:04:59.878Z,3.6
2019-03-09T23:10:02.396Z,3.6
2019-03-09T23:15:04.826Z,3.6
2019-03-09T23:20:07.261Z,3.5
2019-03-09T23:25:09.772Z,3.5
2019-03-09T23:30:17.208Z,3.4
2019-03-09T23:35:14.663Z,3.4
2019-03-09T23:40:17.116Z,3.4
2019-03-09T23:45:19.596Z,3.4
2019-03-09T23:50:22.049Z,3.4
2019-03-09T23:55:24.560Z,3.4
